sensor_id;sensor_type;location;lat;lon;timestamp;P1;durP1;ratioP1;P2;durP2;ratioP2
54641;SDS011;40536;53.194;5.728;2022-07-29T00:00:40;5.30;;;4.80;;
54641;SDS011;40536;53.194;5.728;2022-07-29T00:03:05;5.78;;;4.60;;
54641;SDS011;40536;53.194;5.728;2022-07-29T00:05:31;5.35;;;4.85;;
54641;SDS011;40536;53.194;5.728;2022-07-29T00:07:57;4.60;;;4.07;;
54641;SDS011;40536;53.194;5.728;2022-07-29T00:10:22;5.70;;;5.20;;
54641;SDS011;40536;53.194;5.728;2022-07-29T00:12:48;5.82;;;5.30;;
54641;SDS011;40536;53.194;5.728;2022-07-29T00:15:14;5.45;;;4.63;;
54641;SDS011;40536;53.194;5.728;2022-07-29T00:17:39;5.30;;;4.80;;
54641;SDS011;40536;53.194;5.728;2022-07-29T00:20:05;6.03;;;4.38;;
54641;SDS011;40536;53.194;5.728;2022-07-29T00:22:31;6.65;;;6.03;;
54641;SDS011;40536;53.194;5.728;2022-07-29T00:24:57;6.18;;;5.63;;
54641;SDS011;40536;53.194;5.728;2022-07-29T00:27:22;6.43;;;4.82;;
54641;SDS011;40536;53.194;5.728;2022-07-29T00:29:48;7.32;;;6.60;;
54641;SDS011;40536;53.194;5.728;2022-07-29T00:32:14;9.90;;;8.95;;
54641;SDS011;40536;53.194;5.728;2022-07-29T00:34:40;6.95;;;6.25;;
54641;SDS011;40536;53.194;5.728;2022-07-29T00:37:24;6.55;;;5.88;;
54641;SDS011;40536;53.194;5.728;2022-07-29T00:39:50;6.38;;;5.88;;
54641;SDS011;40536;53.194;5.728;2022-07-29T00:42:16;7.15;;;6.65;;
54641;SDS011;40536;53.194;5.728;2022-07-29T00:44:42;6.60;;;6.00;;
54641;SDS011;40536;53.194;5.728;2022-07-29T00:47:11;6.15;;;5.65;;
54641;SDS011;40536;53.194;5.728;2022-07-29T00:49:38;5.85;;;5.35;;
54641;SDS011;40536;53.194;5.728;2022-07-29T00:52:05;5.57;;;4.82;;
54641;SDS011;40536;53.194;5.728;2022-07-29T00:54:32;8.55;;;7.80;;
54641;SDS011;40536;53.194;5.728;2022-07-29T00:56:59;6.45;;;5.85;;
54641;SDS011;40536;53.194;5.728;2022-07-29T00:59:25;7.15;;;6.47;;
54641;SDS011;40536;53.194;5.728;2022-07-29T01:01:52;6.47;;;5.85;;
54641;SDS011;40536;53.194;5.728;2022-07-29T01:04:19;7.10;;;6.50;;
54641;SDS011;40536;53.194;5.728;2022-07-29T01:06:46;7.47;;;6.88;;
54641;SDS011;40536;53.194;5.728;2022-07-29T01:09:13;6.93;;;5.75;;
54641;SDS011;40536;53.194;5.728;2022-07-29T01:11:39;8.57;;;7.88;;
54641;SDS011;40536;53.194;5.728;2022-07-29T01:14:06;8.90;;;8.02;;
54641;SDS011;40536;53.194;5.728;2022-07-29T01:16:33;6.95;;;6.25;;
54641;SDS011;40536;53.194;5.728;2022-07-29T01:22:24;7.63;;;7.00;;
54641;SDS011;40536;53.194;5.728;2022-07-29T01:27:41;6.93;;;5.53;;
54641;SDS011;40536;53.194;5.728;2022-07-29T01:30:16;9.55;;;8.65;;
54641;SDS011;40536;53.194;5.728;2022-07-29T01:32:42;7.28;;;6.20;;
54641;SDS011;40536;53.194;5.728;2022-07-29T01:37:47;7.43;;;6.82;;
54641;SDS011;40536;53.194;5.728;2022-07-29T01:42:52;12.07;;;11.00;;
54641;SDS011;40536;53.194;5.728;2022-07-29T01:45:23;8.57;;;7.43;;
54641;SDS011;40536;53.194;5.728;2022-07-29T01:50:28;12.25;;;11.45;;
54641;SDS011;40536;53.194;5.728;2022-07-29T01:53:00;8.02;;;7.40;;
54641;SDS011;40536;53.194;5.728;2022-07-29T01:55:29;8.80;;;8.10;;
54641;SDS011;40536;53.194;5.728;2022-07-29T01:57:58;8.60;;;7.80;;
54641;SDS011;40536;53.194;5.728;2022-07-29T02:00:26;8.48;;;7.68;;
54641;SDS011;40536;53.194;5.728;2022-07-29T02:02:53;11.85;;;10.95;;
54641;SDS011;40536;53.194;5.728;2022-07-29T02:05:21;9.07;;;8.40;;
54641;SDS011;40536;53.194;5.728;2022-07-29T02:07:49;8.48;;;7.68;;
54641;SDS011;40536;53.194;5.728;2022-07-29T02:10:17;9.40;;;8.65;;
54641;SDS011;40536;53.194;5.728;2022-07-29T02:12:47;17.67;;;16.45;;
54641;SDS011;40536;53.194;5.728;2022-07-29T02:15:14;13.70;;;12.77;;
54641;SDS011;40536;53.194;5.728;2022-07-29T02:17:43;16.05;;;14.80;;
54641;SDS011;40536;53.194;5.728;2022-07-29T02:20:13;9.90;;;8.70;;
54641;SDS011;40536;53.194;5.728;2022-07-29T02:22:40;17.58;;;16.13;;
54641;SDS011;40536;53.194;5.728;2022-07-29T02:25:07;9.90;;;9.02;;
54641;SDS011;40536;53.194;5.728;2022-07-29T02:27:35;13.38;;;12.48;;
54641;SDS011;40536;53.194;5.728;2022-07-29T02:30:03;15.68;;;14.60;;
54641;SDS011;40536;53.194;5.728;2022-07-29T02:32:31;10.27;;;9.38;;
54641;SDS011;40536;53.194;5.728;2022-07-29T02:35:00;11.70;;;10.80;;
54641;SDS011;40536;53.194;5.728;2022-07-29T02:37:27;10.38;;;9.45;;
54641;SDS011;40536;53.194;5.728;2022-07-29T02:39:54;11.30;;;10.30;;
54641;SDS011;40536;53.194;5.728;2022-07-29T02:42:22;9.23;;;8.57;;
54641;SDS011;40536;53.194;5.728;2022-07-29T02:44:48;12.77;;;11.90;;
54641;SDS011;40536;53.194;5.728;2022-07-29T02:49:43;11.05;;;10.15;;
54641;SDS011;40536;53.194;5.728;2022-07-29T02:52:20;9.55;;;8.65;;
54641;SDS011;40536;53.194;5.728;2022-07-29T02:55:16;8.98;;;8.18;;
54641;SDS011;40536;53.194;5.728;2022-07-29T02:58:05;8.77;;;8.05;;
54641;SDS011;40536;53.194;5.728;2022-07-29T03:00:51;10.73;;;9.77;;
54641;SDS011;40536;53.194;5.728;2022-07-29T03:03:19;22.85;;;21.30;;
54641;SDS011;40536;53.194;5.728;2022-07-29T03:05:46;10.27;;;9.43;;
54641;SDS011;40536;53.194;5.728;2022-07-29T03:08:12;9.88;;;9.02;;
54641;SDS011;40536;53.194;5.728;2022-07-29T03:10:41;9.93;;;9.10;;
54641;SDS011;40536;53.194;5.728;2022-07-29T03:13:09;12.63;;;11.73;;
54641;SDS011;40536;53.194;5.728;2022-07-29T03:15:35;9.63;;;8.73;;
54641;SDS011;40536;53.194;5.728;2022-07-29T03:18:01;8.35;;;7.55;;
54641;SDS011;40536;53.194;5.728;2022-07-29T03:20:28;9.85;;;8.98;;
54641;SDS011;40536;53.194;5.728;2022-07-29T03:22:54;8.40;;;7.28;;
54641;SDS011;40536;53.194;5.728;2022-07-29T03:25:20;8.63;;;7.95;;
54641;SDS011;40536;53.194;5.728;2022-07-29T03:27:46;8.68;;;7.97;;
54641;SDS011;40536;53.194;5.728;2022-07-29T03:30:13;12.23;;;11.32;;
54641;SDS011;40536;53.194;5.728;2022-07-29T03:32:39;7.95;;;7.25;;
54641;SDS011;40536;53.194;5.728;2022-07-29T03:35:05;9.55;;;8.77;;
54641;SDS011;40536;53.194;5.728;2022-07-29T03:37:31;10.10;;;9.40;;
54641;SDS011;40536;53.194;5.728;2022-07-29T03:39:58;8.38;;;6.93;;
54641;SDS011;40536;53.194;5.728;2022-07-29T03:42:27;14.65;;;8.88;;
54641;SDS011;40536;53.194;5.728;2022-07-29T03:44:56;12.70;;;11.50;;
54641;SDS011;40536;53.194;5.728;2022-07-29T03:47:24;8.48;;;7.70;;
54641;SDS011;40536;53.194;5.728;2022-07-29T03:49:54;8.60;;;7.95;;
54641;SDS011;40536;53.194;5.728;2022-07-29T03:52:25;9.68;;;8.80;;
54641;SDS011;40536;53.194;5.728;2022-07-29T03:54:51;10.82;;;9.93;;
54641;SDS011;40536;53.194;5.728;2022-07-29T03:57:18;10.38;;;9.57;;
54641;SDS011;40536;53.194;5.728;2022-07-29T03:59:48;10.20;;;9.13;;
54641;SDS011;40536;53.194;5.728;2022-07-29T04:02:15;16.55;;;15.55;;
54641;SDS011;40536;53.194;5.728;2022-07-29T04:04:41;16.90;;;15.80;;
54641;SDS011;40536;53.194;5.728;2022-07-29T04:07:08;11.20;;;10.30;;
54641;SDS011;40536;53.194;5.728;2022-07-29T04:09:37;21.10;;;19.67;;
54641;SDS011;40536;53.194;5.728;2022-07-29T04:12:03;12.20;;;11.10;;
54641;SDS011;40536;53.194;5.728;2022-07-29T04:14:30;14.75;;;13.65;;
54641;SDS011;40536;53.194;5.728;2022-07-29T04:17:02;14.23;;;13.02;;
54641;SDS011;40536;53.194;5.728;2022-07-29T04:19:29;28.27;;;26.33;;
54641;SDS011;40536;53.194;5.728;2022-07-29T04:21:56;14.20;;;12.98;;
54641;SDS011;40536;53.194;5.728;2022-07-29T04:24:22;24.40;;;22.65;;
54641;SDS011;40536;53.194;5.728;2022-07-29T04:26:48;13.65;;;12.65;;
54641;SDS011;40536;53.194;5.728;2022-07-29T04:29:14;12.43;;;11.52;;
54641;SDS011;40536;53.194;5.728;2022-07-29T04:31:43;20.27;;;18.77;;
54641;SDS011;40536;53.194;5.728;2022-07-29T04:34:09;12.43;;;11.52;;
54641;SDS011;40536;53.194;5.728;2022-07-29T04:36:35;11.50;;;10.48;;
54641;SDS011;40536;53.194;5.728;2022-07-29T04:39:01;11.70;;;10.63;;
54641;SDS011;40536;53.194;5.728;2022-07-29T04:41:27;15.75;;;14.32;;
54641;SDS011;40536;53.194;5.728;2022-07-29T04:43:53;10.77;;;9.70;;
54641;SDS011;40536;53.194;5.728;2022-07-29T04:46:19;9.45;;;8.52;;
54641;SDS011;40536;53.194;5.728;2022-07-29T04:48:46;12.68;;;11.60;;
54641;SDS011;40536;53.194;5.728;2022-07-29T04:51:12;9.82;;;8.77;;
54641;SDS011;40536;53.194;5.728;2022-07-29T04:53:38;8.65;;;7.93;;
54641;SDS011;40536;53.194;5.728;2022-07-29T04:56:04;9.40;;;8.50;;
54641;SDS011;40536;53.194;5.728;2022-07-29T04:58:30;7.40;;;6.80;;
54641;SDS011;40536;53.194;5.728;2022-07-29T05:00:56;11.63;;;10.07;;
54641;SDS011;40536;53.194;5.728;2022-07-29T05:03:21;7.32;;;6.57;;
54641;SDS011;40536;53.194;5.728;2022-07-29T05:05:47;10.25;;;9.27;;
54641;SDS011;40536;53.194;5.728;2022-07-29T05:08:13;8.52;;;7.70;;
54641;SDS011;40536;53.194;5.728;2022-07-29T05:10:38;7.18;;;6.55;;
54641;SDS011;40536;53.194;5.728;2022-07-29T05:13:05;8.90;;;8.18;;
54641;SDS011;40536;53.194;5.728;2022-07-29T05:15:32;6.50;;;5.85;;
54641;SDS011;40536;53.194;5.728;2022-07-29T05:18:00;8.38;;;7.57;;
54641;SDS011;40536;53.194;5.728;2022-07-29T05:20:26;7.65;;;6.90;;
54641;SDS011;40536;53.194;5.728;2022-07-29T05:22:54;6.57;;;5.97;;
54641;SDS011;40536;53.194;5.728;2022-07-29T05:25:22;6.68;;;6.07;;
54641;SDS011;40536;53.194;5.728;2022-07-29T05:27:49;8.23;;;7.53;;
54641;SDS011;40536;53.194;5.728;2022-07-29T05:30:15;9.75;;;5.50;;
54641;SDS011;40536;53.194;5.728;2022-07-29T05:32:41;8.15;;;7.35;;
54641;SDS011;40536;53.194;5.728;2022-07-29T05:35:07;6.13;;;5.50;;
54641;SDS011;40536;53.194;5.728;2022-07-29T05:37:33;9.70;;;8.93;;
54641;SDS011;40536;53.194;5.728;2022-07-29T05:39:59;6.63;;;5.95;;
54641;SDS011;40536;53.194;5.728;2022-07-29T05:42:25;6.53;;;5.80;;
54641;SDS011;40536;53.194;5.728;2022-07-29T05:44:50;9.20;;;6.72;;
54641;SDS011;40536;53.194;5.728;2022-07-29T05:47:16;7.22;;;6.43;;
54641;SDS011;40536;53.194;5.728;2022-07-29T05:49:42;9.77;;;8.93;;
54641;SDS011;40536;53.194;5.728;2022-07-29T05:52:08;7.20;;;6.25;;
54641;SDS011;40536;53.194;5.728;2022-07-29T05:54:34;7.68;;;6.18;;
54641;SDS011;40536;53.194;5.728;2022-07-29T05:57:00;6.22;;;5.63;;
54641;SDS011;40536;53.194;5.728;2022-07-29T05:59:26;11.20;;;10.38;;
54641;SDS011;40536;53.194;5.728;2022-07-29T06:01:52;8.20;;;7.45;;
54641;SDS011;40536;53.194;5.728;2022-07-29T06:04:17;7.50;;;6.82;;
54641;SDS011;40536;53.194;5.728;2022-07-29T06:06:43;6.95;;;6.20;;
54641;SDS011;40536;53.194;5.728;2022-07-29T06:09:08;15.18;;;14.05;;
54641;SDS011;40536;53.194;5.728;2022-07-29T06:11:34;12.10;;;11.05;;
54641;SDS011;40536;53.194;5.728;2022-07-29T06:14:00;7.40;;;6.70;;
54641;SDS011;40536;53.194;5.728;2022-07-29T06:16:28;10.75;;;9.77;;
54641;SDS011;40536;53.194;5.728;2022-07-29T06:18:53;10.98;;;9.98;;
54641;SDS011;40536;53.194;5.728;2022-07-29T06:21:19;7.97;;;7.22;;
54641;SDS011;40536;53.194;5.728;2022-07-29T06:23:45;8.13;;;7.35;;
54641;SDS011;40536;53.194;5.728;2022-07-29T06:26:10;7.15;;;6.38;;
54641;SDS011;40536;53.194;5.728;2022-07-29T06:28:36;8.98;;;8.07;;
54641;SDS011;40536;53.194;5.728;2022-07-29T06:31:02;8.90;;;8.07;;
54641;SDS011;40536;53.194;5.728;2022-07-29T06:33:27;6.10;;;5.50;;
54641;SDS011;40536;53.194;5.728;2022-07-29T06:35:53;7.85;;;6.70;;
54641;SDS011;40536;53.194;5.728;2022-07-29T06:38:19;8.55;;;6.60;;
54641;SDS011;40536;53.194;5.728;2022-07-29T06:40:45;6.85;;;5.65;;
54641;SDS011;40536;53.194;5.728;2022-07-29T06:43:34;6.97;;;5.82;;
54641;SDS011;40536;53.194;5.728;2022-07-29T06:46:06;12.85;;;9.50;;
54641;SDS011;40536;53.194;5.728;2022-07-29T06:48:33;6.45;;;5.80;;
54641;SDS011;40536;53.194;5.728;2022-07-29T06:51:01;7.50;;;4.60;;
54641;SDS011;40536;53.194;5.728;2022-07-29T06:53:27;8.20;;;6.05;;
54641;SDS011;40536;53.194;5.728;2022-07-29T06:55:53;8.10;;;7.18;;
54641;SDS011;40536;53.194;5.728;2022-07-29T06:58:19;8.18;;;6.03;;
54641;SDS011;40536;53.194;5.728;2022-07-29T07:00:48;7.00;;;5.47;;
54641;SDS011;40536;53.194;5.728;2022-07-29T07:03:14;6.68;;;5.55;;
54641;SDS011;40536;53.194;5.728;2022-07-29T07:05:40;6.45;;;5.32;;
54641;SDS011;40536;53.194;5.728;2022-07-29T07:08:06;6.57;;;5.97;;
54641;SDS011;40536;53.194;5.728;2022-07-29T07:10:32;7.95;;;5.57;;
54641;SDS011;40536;53.194;5.728;2022-07-29T07:12:58;7.03;;;6.32;;
54641;SDS011;40536;53.194;5.728;2022-07-29T07:15:24;8.45;;;6.63;;
54641;SDS011;40536;53.194;5.728;2022-07-29T07:17:50;7.22;;;4.68;;
54641;SDS011;40536;53.194;5.728;2022-07-29T07:20:16;5.85;;;3.90;;
54641;SDS011;40536;53.194;5.728;2022-07-29T07:22:42;6.97;;;4.57;;
54641;SDS011;40536;53.194;5.728;2022-07-29T07:25:08;7.38;;;4.93;;
54641;SDS011;40536;53.194;5.728;2022-07-29T07:27:34;8.25;;;4.65;;
54641;SDS011;40536;53.194;5.728;2022-07-29T07:29:59;7.00;;;4.57;;
54641;SDS011;40536;53.194;5.728;2022-07-29T07:32:25;7.25;;;4.93;;
54641;SDS011;40536;53.194;5.728;2022-07-29T07:34:51;7.03;;;4.00;;
54641;SDS011;40536;53.194;5.728;2022-07-29T07:37:17;8.80;;;5.40;;
54641;SDS011;40536;53.194;5.728;2022-07-29T07:39:45;5.68;;;3.80;;
54641;SDS011;40536;53.194;5.728;2022-07-29T07:42:11;6.25;;;4.30;;
54641;SDS011;40536;53.194;5.728;2022-07-29T07:44:38;7.32;;;4.40;;
54641;SDS011;40536;53.194;5.728;2022-07-29T07:47:04;6.55;;;4.95;;
54641;SDS011;40536;53.194;5.728;2022-07-29T07:49:30;5.90;;;4.18;;
54641;SDS011;40536;53.194;5.728;2022-07-29T07:51:56;6.85;;;4.47;;
54641;SDS011;40536;53.194;5.728;2022-07-29T07:54:21;6.20;;;5.00;;
54641;SDS011;40536;53.194;5.728;2022-07-29T07:56:47;9.20;;;5.70;;
54641;SDS011;40536;53.194;5.728;2022-07-29T07:59:16;5.40;;;4.90;;
54641;SDS011;40536;53.194;5.728;2022-07-29T08:01:42;6.38;;;4.80;;
54641;SDS011;40536;53.194;5.728;2022-07-29T08:04:08;6.78;;;6.18;;
54641;SDS011;40536;53.194;5.728;2022-07-29T08:06:34;9.45;;;6.55;;
54641;SDS011;40536;53.194;5.728;2022-07-29T08:09:01;5.82;;;4.65;;
54641;SDS011;40536;53.194;5.728;2022-07-29T08:11:28;8.23;;;4.75;;
54641;SDS011;40536;53.194;5.728;2022-07-29T08:13:54;7.90;;;5.35;;
54641;SDS011;40536;53.194;5.728;2022-07-29T08:16:20;7.03;;;5.05;;
54641;SDS011;40536;53.194;5.728;2022-07-29T08:18:45;8.63;;;5.53;;
54641;SDS011;40536;53.194;5.728;2022-07-29T08:21:12;7.18;;;5.40;;
54641;SDS011;40536;53.194;5.728;2022-07-29T08:23:39;7.93;;;6.93;;
54641;SDS011;40536;53.194;5.728;2022-07-29T08:26:10;7.07;;;5.72;;
54641;SDS011;40536;53.194;5.728;2022-07-29T08:28:39;10.20;;;6.70;;
54641;SDS011;40536;53.194;5.728;2022-07-29T08:31:09;8.77;;;4.53;;
54641;SDS011;40536;53.194;5.728;2022-07-29T08:33:35;6.90;;;4.82;;
54641;SDS011;40536;53.194;5.728;2022-07-29T08:36:01;9.07;;;5.45;;
54641;SDS011;40536;53.194;5.728;2022-07-29T08:38:26;5.05;;;4.07;;
54641;SDS011;40536;53.194;5.728;2022-07-29T08:40:53;6.18;;;4.85;;
54641;SDS011;40536;53.194;5.728;2022-07-29T08:43:19;6.28;;;4.65;;
54641;SDS011;40536;53.194;5.728;2022-07-29T08:45:46;5.70;;;4.45;;
54641;SDS011;40536;53.194;5.728;2022-07-29T08:48:13;6.80;;;4.75;;
54641;SDS011;40536;53.194;5.728;2022-07-29T08:50:50;7.68;;;5.00;;
54641;SDS011;40536;53.194;5.728;2022-07-29T08:53:18;6.45;;;5.03;;
54641;SDS011;40536;53.194;5.728;2022-07-29T08:55:47;12.32;;;5.80;;
54641;SDS011;40536;53.194;5.728;2022-07-29T08:58:14;6.80;;;4.60;;
54641;SDS011;40536;53.194;5.728;2022-07-29T09:00:41;6.78;;;4.55;;
54641;SDS011;40536;53.194;5.728;2022-07-29T09:03:14;5.70;;;4.65;;
54641;SDS011;40536;53.194;5.728;2022-07-29T09:05:42;10.32;;;4.90;;
54641;SDS011;40536;53.194;5.728;2022-07-29T09:08:10;7.18;;;4.93;;
54641;SDS011;40536;53.194;5.728;2022-07-29T09:10:36;7.22;;;4.70;;
54641;SDS011;40536;53.194;5.728;2022-07-29T09:13:02;5.82;;;4.70;;
54641;SDS011;40536;53.194;5.728;2022-07-29T09:15:28;8.85;;;4.38;;
54641;SDS011;40536;53.194;5.728;2022-07-29T09:17:53;7.45;;;4.60;;
54641;SDS011;40536;53.194;5.728;2022-07-29T09:20:21;8.52;;;5.28;;
54641;SDS011;40536;53.194;5.728;2022-07-29T09:22:48;6.30;;;4.38;;
54641;SDS011;40536;53.194;5.728;2022-07-29T09:28:15;14.45;;;5.97;;
54641;SDS011;40536;53.194;5.728;2022-07-29T09:30:51;6.13;;;4.35;;
54641;SDS011;40536;53.194;5.728;2022-07-29T09:33:23;6.38;;;4.90;;
54641;SDS011;40536;53.194;5.728;2022-07-29T09:36:05;7.30;;;6.22;;
54641;SDS011;40536;53.194;5.728;2022-07-29T09:38:33;6.40;;;4.28;;
54641;SDS011;40536;53.194;5.728;2022-07-29T09:41:00;10.30;;;4.70;;
54641;SDS011;40536;53.194;5.728;2022-07-29T09:43:27;10.05;;;5.35;;
54641;SDS011;40536;53.194;5.728;2022-07-29T09:45:53;7.38;;;5.05;;
54641;SDS011;40536;53.194;5.728;2022-07-29T09:48:20;6.22;;;4.60;;
54641;SDS011;40536;53.194;5.728;2022-07-29T09:50:50;6.80;;;4.90;;
54641;SDS011;40536;53.194;5.728;2022-07-29T09:56:01;6.55;;;4.82;;
54641;SDS011;40536;53.194;5.728;2022-07-29T09:58:27;8.32;;;4.72;;
54641;SDS011;40536;53.194;5.728;2022-07-29T10:00:53;5.80;;;5.13;;
54641;SDS011;40536;53.194;5.728;2022-07-29T10:03:20;6.43;;;5.07;;
54641;SDS011;40536;53.194;5.728;2022-07-29T10:06:03;9.63;;;5.85;;
54641;SDS011;40536;53.194;5.728;2022-07-29T10:08:30;6.95;;;5.35;;
54641;SDS011;40536;53.194;5.728;2022-07-29T10:11:08;7.70;;;5.10;;
54641;SDS011;40536;53.194;5.728;2022-07-29T10:13:41;7.72;;;4.90;;
54641;SDS011;40536;53.194;5.728;2022-07-29T10:16:10;8.45;;;4.80;;
54641;SDS011;40536;53.194;5.728;2022-07-29T10:18:37;11.80;;;5.35;;
54641;SDS011;40536;53.194;5.728;2022-07-29T10:21:04;7.75;;;5.35;;
54641;SDS011;40536;53.194;5.728;2022-07-29T10:23:30;7.40;;;5.28;;
54641;SDS011;40536;53.194;5.728;2022-07-29T10:25:57;8.90;;;4.70;;
54641;SDS011;40536;53.194;5.728;2022-07-29T10:28:23;9.18;;;6.55;;
54641;SDS011;40536;53.194;5.728;2022-07-29T10:30:50;9.05;;;5.47;;
54641;SDS011;40536;53.194;5.728;2022-07-29T10:39:00;9.52;;;6.65;;
54641;SDS011;40536;53.194;5.728;2022-07-29T10:46:40;9.70;;;8.07;;
54641;SDS011;40536;53.194;5.728;2022-07-29T10:49:25;8.50;;;7.57;;
54641;SDS011;40536;53.194;5.728;2022-07-29T10:52:04;10.15;;;9.20;;
54641;SDS011;40536;53.194;5.728;2022-07-29T11:05:14;8.48;;;7.68;;
54641;SDS011;40536;53.194;5.728;2022-07-29T11:10:38;8.27;;;6.32;;
54641;SDS011;40536;53.194;5.728;2022-07-29T11:13:05;9.23;;;8.32;;
54641;SDS011;40536;53.194;5.728;2022-07-29T11:15:51;7.68;;;6.35;;
54641;SDS011;40536;53.194;5.728;2022-07-29T11:18:20;8.82;;;6.68;;
54641;SDS011;40536;53.194;5.728;2022-07-29T11:20:46;9.02;;;7.60;;
54641;SDS011;40536;53.194;5.728;2022-07-29T11:28:57;10.98;;;6.32;;
54641;SDS011;40536;53.194;5.728;2022-07-29T11:33:55;9.82;;;7.32;;
54641;SDS011;40536;53.194;5.728;2022-07-29T11:36:22;10.13;;;8.07;;
54641;SDS011;40536;53.194;5.728;2022-07-29T11:38:47;14.45;;;9.05;;
54641;SDS011;40536;53.194;5.728;2022-07-29T11:43:53;10.20;;;8.90;;
54641;SDS011;40536;53.194;5.728;2022-07-29T11:49:11;8.02;;;7.22;;
54641;SDS011;40536;53.194;5.728;2022-07-29T11:51:37;11.27;;;7.85;;
54641;SDS011;40536;53.194;5.728;2022-07-29T11:54:03;14.80;;;9.73;;
54641;SDS011;40536;53.194;5.728;2022-07-29T11:56:30;9.35;;;6.57;;
54641;SDS011;40536;53.194;5.728;2022-07-29T11:59:06;9.65;;;8.75;;
54641;SDS011;40536;53.194;5.728;2022-07-29T12:01:34;11.55;;;8.63;;
54641;SDS011;40536;53.194;5.728;2022-07-29T12:04:06;8.48;;;6.72;;
54641;SDS011;40536;53.194;5.728;2022-07-29T12:06:33;9.88;;;7.85;;
54641;SDS011;40536;53.194;5.728;2022-07-29T12:08:59;9.65;;;8.75;;
54641;SDS011;40536;53.194;5.728;2022-07-29T12:11:25;9.73;;;8.75;;
54641;SDS011;40536;53.194;5.728;2022-07-29T12:13:52;8.00;;;7.03;;
54641;SDS011;40536;53.194;5.728;2022-07-29T12:16:21;8.43;;;7.35;;
54641;SDS011;40536;53.194;5.728;2022-07-29T12:18:56;9.13;;;7.15;;
54641;SDS011;40536;53.194;5.728;2022-07-29T12:21:26;8.13;;;6.72;;
54641;SDS011;40536;53.194;5.728;2022-07-29T12:23:52;8.32;;;7.22;;
54641;SDS011;40536;53.194;5.728;2022-07-29T12:26:19;12.20;;;6.65;;
54641;SDS011;40536;53.194;5.728;2022-07-29T12:28:45;8.10;;;7.30;;
54641;SDS011;40536;53.194;5.728;2022-07-29T12:31:14;10.05;;;7.25;;
54641;SDS011;40536;53.194;5.728;2022-07-29T12:33:41;7.63;;;6.13;;
54641;SDS011;40536;53.194;5.728;2022-07-29T12:36:07;9.15;;;6.55;;
54641;SDS011;40536;53.194;5.728;2022-07-29T12:38:36;8.02;;;6.82;;
54641;SDS011;40536;53.194;5.728;2022-07-29T12:41:05;9.00;;;6.35;;
54641;SDS011;40536;53.194;5.728;2022-07-29T12:43:32;9.32;;;6.25;;
54641;SDS011;40536;53.194;5.728;2022-07-29T12:45:57;7.53;;;6.72;;
54641;SDS011;40536;53.194;5.728;2022-07-29T12:48:38;11.75;;;7.43;;
54641;SDS011;40536;53.194;5.728;2022-07-29T12:51:06;8.73;;;7.13;;
54641;SDS011;40536;53.194;5.728;2022-07-29T12:53:33;10.80;;;6.60;;
54641;SDS011;40536;53.194;5.728;2022-07-29T12:56:00;8.88;;;6.90;;
54641;SDS011;40536;53.194;5.728;2022-07-29T13:01:02;9.77;;;7.50;;
54641;SDS011;40536;53.194;5.728;2022-07-29T13:03:46;9.95;;;7.53;;
54641;SDS011;40536;53.194;5.728;2022-07-29T13:09:17;12.48;;;8.07;;
54641;SDS011;40536;53.194;5.728;2022-07-29T13:11:47;9.80;;;8.02;;
54641;SDS011;40536;53.194;5.728;2022-07-29T13:14:33;9.68;;;8.60;;
54641;SDS011;40536;53.194;5.728;2022-07-29T13:17:21;9.17;;;8.27;;
54641;SDS011;40536;53.194;5.728;2022-07-29T13:19:53;8.77;;;7.95;;
54641;SDS011;40536;53.194;5.728;2022-07-29T13:22:30;8.32;;;7.53;;
54641;SDS011;40536;53.194;5.728;2022-07-29T13:27:23;11.20;;;8.60;;
54641;SDS011;40536;53.194;5.728;2022-07-29T13:29:51;10.20;;;9.20;;
54641;SDS011;40536;53.194;5.728;2022-07-29T13:32:18;9.60;;;8.52;;
54641;SDS011;40536;53.194;5.728;2022-07-29T13:34:44;9.07;;;8.25;;
54641;SDS011;40536;53.194;5.728;2022-07-29T13:37:10;8.85;;;8.02;;
54641;SDS011;40536;53.194;5.728;2022-07-29T13:39:36;8.43;;;7.50;;
54641;SDS011;40536;53.194;5.728;2022-07-29T13:42:02;10.38;;;8.35;;
54641;SDS011;40536;53.194;5.728;2022-07-29T13:44:29;8.45;;;7.60;;
54641;SDS011;40536;53.194;5.728;2022-07-29T13:46:55;10.18;;;7.50;;
54641;SDS011;40536;53.194;5.728;2022-07-29T13:49:21;7.88;;;6.50;;
54641;SDS011;40536;53.194;5.728;2022-07-29T13:51:47;7.93;;;7.07;;
54641;SDS011;40536;53.194;5.728;2022-07-29T13:54:14;11.32;;;8.10;;
54641;SDS011;40536;53.194;5.728;2022-07-29T13:56:40;12.90;;;7.70;;
54641;SDS011;40536;53.194;5.728;2022-07-29T13:59:05;8.32;;;7.20;;
54641;SDS011;40536;53.194;5.728;2022-07-29T14:01:32;9.25;;;8.18;;
54641;SDS011;40536;53.194;5.728;2022-07-29T14:04:01;9.00;;;8.10;;
54641;SDS011;40536;53.194;5.728;2022-07-29T14:06:27;9.02;;;8.00;;
54641;SDS011;40536;53.194;5.728;2022-07-29T14:08:53;8.68;;;5.75;;
54641;SDS011;40536;53.194;5.728;2022-07-29T14:11:19;6.07;;;4.90;;
54641;SDS011;40536;53.194;5.728;2022-07-29T14:13:44;5.53;;;4.30;;
54641;SDS011;40536;53.194;5.728;2022-07-29T14:16:10;5.85;;;4.35;;
54641;SDS011;40536;53.194;5.728;2022-07-29T14:18:36;6.80;;;5.03;;
54641;SDS011;40536;53.194;5.728;2022-07-29T14:21:01;6.45;;;4.68;;
54641;SDS011;40536;53.194;5.728;2022-07-29T14:23:27;6.82;;;5.18;;
54641;SDS011;40536;53.194;5.728;2022-07-29T14:25:53;8.18;;;6.60;;
54641;SDS011;40536;53.194;5.728;2022-07-29T14:28:18;8.95;;;7.82;;
54641;SDS011;40536;53.194;5.728;2022-07-29T14:30:44;9.90;;;7.10;;
54641;SDS011;40536;53.194;5.728;2022-07-29T14:33:10;8.45;;;6.55;;
54641;SDS011;40536;53.194;5.728;2022-07-29T14:35:35;9.10;;;7.07;;
54641;SDS011;40536;53.194;5.728;2022-07-29T14:38:01;7.30;;;6.60;;
54641;SDS011;40536;53.194;5.728;2022-07-29T14:40:27;8.60;;;7.80;;
54641;SDS011;40536;53.194;5.728;2022-07-29T14:42:53;10.43;;;8.18;;
54641;SDS011;40536;53.194;5.728;2022-07-29T14:45:18;8.13;;;7.32;;
54641;SDS011;40536;53.194;5.728;2022-07-29T14:47:44;7.53;;;6.78;;
54641;SDS011;40536;53.194;5.728;2022-07-29T14:50:10;9.85;;;8.45;;
54641;SDS011;40536;53.194;5.728;2022-07-29T14:52:35;9.23;;;8.32;;
54641;SDS011;40536;53.194;5.728;2022-07-29T14:55:02;8.30;;;7.13;;
54641;SDS011;40536;53.194;5.728;2022-07-29T14:57:29;8.10;;;7.40;;
54641;SDS011;40536;53.194;5.728;2022-07-29T14:59:54;8.85;;;7.70;;
54641;SDS011;40536;53.194;5.728;2022-07-29T15:02:20;9.75;;;8.50;;
54641;SDS011;40536;53.194;5.728;2022-07-29T15:04:46;9.40;;;8.50;;
54641;SDS011;40536;53.194;5.728;2022-07-29T15:07:13;9.43;;;8.50;;
54641;SDS011;40536;53.194;5.728;2022-07-29T15:09:39;9.75;;;8.98;;
54641;SDS011;40536;53.194;5.728;2022-07-29T15:12:05;8.73;;;8.02;;
54641;SDS011;40536;53.194;5.728;2022-07-29T15:14:31;8.80;;;7.97;;
54641;SDS011;40536;53.194;5.728;2022-07-29T15:16:57;9.18;;;7.72;;
54641;SDS011;40536;53.194;5.728;2022-07-29T15:19:23;8.70;;;8.00;;
54641;SDS011;40536;53.194;5.728;2022-07-29T15:21:48;9.52;;;8.63;;
54641;SDS011;40536;53.194;5.728;2022-07-29T15:24:15;8.98;;;8.07;;
54641;SDS011;40536;53.194;5.728;2022-07-29T15:26:41;17.15;;;9.52;;
54641;SDS011;40536;53.194;5.728;2022-07-29T15:29:07;8.95;;;8.05;;
54641;SDS011;40536;53.194;5.728;2022-07-29T15:31:33;8.07;;;7.28;;
54641;SDS011;40536;53.194;5.728;2022-07-29T15:33:59;7.90;;;7.05;;
54641;SDS011;40536;53.194;5.728;2022-07-29T15:36:24;7.93;;;7.25;;
54641;SDS011;40536;53.194;5.728;2022-07-29T15:38:53;7.72;;;7.07;;
54641;SDS011;40536;53.194;5.728;2022-07-29T15:41:19;8.50;;;7.45;;
54641;SDS011;40536;53.194;5.728;2022-07-29T15:43:45;8.18;;;7.38;;
54641;SDS011;40536;53.194;5.728;2022-07-29T15:46:16;8.07;;;7.38;;
54641;SDS011;40536;53.194;5.728;2022-07-29T15:49:02;8.45;;;7.55;;
54641;SDS011;40536;53.194;5.728;2022-07-29T15:51:28;9.10;;;7.45;;
54641;SDS011;40536;53.194;5.728;2022-07-29T15:53:54;13.43;;;8.50;;